Time;durP1;ratioP1;P1;durP2;ratioP2;P2;SDS_P1;SDS_P2;PMS_P1;PMS_P2;Temp;Humidity;BMP_temperature;BMP_pressure;BME280_temperature;BME280_humidity;BME280_pressure;Samples;Min_cycle;Max_cycle;Signal;HPM_P1;HPM_P2
2023/01/04 00:01:02;;;;;;;;;0.00;0.00;;;;;21.86;45.44;102118.47;5032982;28;45431;-69
2023/01/04 00:03:27;;;;;;;;;2.00;0.33;;;;;21.85;46.10;102122.94;5032997;28;45298;-69
2023/01/04 00:05:52;;;;;;;;;1.33;0.00;;;;;21.87;46.06;102116.66;5033181;28;45458;-69
2023/01/04 00:08:18;;;;;;;;;0.00;0.00;;;;;21.85;45.99;102120.31;5033344;28;45435;-69
2023/01/04 00:10:44;;;;;;;;;0.00;0.00;;;;;21.86;45.98;102110.50;5033072;27;47315;-69
2023/01/04 00:13:10;;;;;;;;;0.00;0.00;;;;;21.86;45.61;102107.88;5032403;28;45329;-69
2023/01/04 00:15:35;;;;;;;;;0.00;0.00;;;;;21.87;45.47;102106.06;5033321;28;45354;-69
2023/01/04 00:18:01;;;;;;;;;1.00;0.00;;;;;21.80;45.63;102096.06;5032426;28;45298;-69
2023/01/04 00:20:26;;;;;;;;;2.00;0.00;;;;;21.87;45.98;102108.69;5032853;28;45936;-69
2023/01/04 00:22:51;;;;;;;;;0.00;0.00;;;;;21.87;45.53;102093.69;5032949;28;45359;-69
2023/01/04 00:25:16;;;;;;;;;0.00;0.00;;;;;21.82;45.46;102077.34;5032984;28;45362;-69
2023/01/04 00:27:42;;;;;;;;;0.00;0.00;;;;;21.85;45.90;102085.00;5031443;28;45378;-69
2023/01/04 00:30:08;;;;;;;;;0.00;0.00;;;;;21.85;45.54;102085.00;5034030;28;45458;-69
2023/01/04 00:32:33;;;;;;;;;0.00;0.00;;;;;21.85;45.44;102090.31;5052833;28;45956;-69
2023/01/04 00:34:58;;;;;;;;;0.00;0.00;;;;;21.85;45.51;102088.50;5052687;28;45379;-69
2023/01/04 00:37:24;;;;;;;;;1.33;1.00;;;;;21.84;45.91;102089.47;5052797;28;45340;-69
2023/01/04 00:39:49;;;;;;;;;0.00;0.00;;;;;21.84;45.50;102086.00;5052724;28;46068;-69
2023/01/04 00:42:14;;;;;;;;;1.00;0.00;;;;;21.85;45.53;102090.31;5052295;28;45371;-69
2023/01/04 00:44:40;;;;;;;;;1.00;1.00;;;;;21.83;45.40;102081.69;5052908;28;45411;-69
2023/01/04 00:47:05;;;;;;;;;0.00;0.00;;;;;21.77;45.44;102075.16;5052702;28;45496;-69
2023/01/04 00:49:31;;;;;;;;;0.33;0.33;;;;;21.80;45.67;102077.53;5052405;28;47417;-69
2023/01/04 00:51:56;;;;;;;;;0.00;0.00;;;;;21.80;45.41;102074.88;5034532;28;45710;-69
2023/01/04 00:54:23;;;;;;;;;0.00;0.00;;;;;21.82;45.76;102075.56;5051615;28;45369;-69
2023/01/04 00:56:48;;;;;;;;;0.00;0.00;;;;;21.76;45.74;102062.06;5031739;28;45251;-69
2023/01/04 00:59:17;;;;;;;;;0.33;0.33;;;;;21.82;45.48;102072.91;5032137;28;46833;-69
2023/01/04 01:01:43;;;;;;;;;1.33;0.33;;;;;21.74;45.47;102052.44;5032191;28;45394;-69
2023/01/04 01:04:12;;;;;;;;;0.00;0.00;;;;;21.81;45.92;102057.97;5014420;28;45414;-69
2023/01/04 01:06:37;;;;;;;;;0.00;0.00;;;;;21.69;45.69;102036.16;5032282;28;45350;-69
2023/01/04 01:09:03;;;;;;;;;0.33;0.00;;;;;21.81;45.47;102051.84;5031941;28;47135;-69
2023/01/04 01:11:29;;;;;;;;;0.00;0.00;;;;;21.75;45.75;102042.69;5031901;28;45357;-69
2023/01/04 01:13:54;;;;;;;;;0.00;0.00;;;;;21.80;45.81;102047.53;5032233;28;45354;-69
2023/01/04 01:16:22;;;;;;;;;0.00;0.00;;;;;21.80;45.50;102042.25;5032285;28;45341;-70
2023/01/04 01:18:48;;;;;;;;;1.00;0.00;;;;;21.79;45.88;102043.22;5032037;28;46040;-69
2023/01/04 01:21:19;;;;;;;;;0.00;0.00;;;;;21.79;45.79;102038.75;5031787;28;45425;-69
2023/01/04 01:23:45;;;;;;;;;0.33;0.33;;;;;21.80;45.55;102039.59;5032279;28;45354;-69
2023/01/04 01:26:14;;;;;;;;;0.00;0.00;;;;;21.80;46.08;102039.59;5031602;28;45381;-68
2023/01/04 01:28:39;;;;;;;;;1.33;0.00;;;;;21.79;45.55;102040.56;5031777;28;46058;-69
2023/01/04 01:31:30;;;;;;;;;0.00;0.00;;;;;21.79;45.46;102025.50;5040951;28;45391;-69
2023/01/04 01:33:55;;;;;;;;;0.67;0.67;;;;;21.80;45.67;102029.84;5051405;28;45222;-69
2023/01/04 01:36:24;;;;;;;;;0.00;0.00;;;;;21.81;45.73;102041.25;5051916;28;45428;-69
2023/01/04 01:38:49;;;;;;;;;1.00;0.33;;;;;21.80;45.37;102027.19;5051833;28;46997;-69
2023/01/04 01:41:25;;;;;;;;;0.33;0.00;;;;;21.80;45.31;102029.84;5054606;28;45308;-69
2023/01/04 01:43:54;;;;;;;;;0.00;0.00;;;;;21.81;45.81;102039.44;5055119;28;45423;-69
2023/01/04 01:46:27;;;;;;;;;0.00;0.00;;;;;21.81;45.33;102039.44;5055059;28;45349;-69
2023/01/04 01:48:59;;;;;;;;;0.00;0.00;;;;;21.68;45.29;102009.81;5054642;28;46398;-69
2023/01/04 01:51:26;;;;;;;;;0.00;0.00;;;;;21.82;45.40;102043.75;5054773;28;45478;-69
2023/01/04 01:53:59;;;;;;;;;1.33;0.00;;;;;21.83;45.37;102047.25;5054572;28;45459;-70
2023/01/04 01:56:27;;;;;;;;;1.00;0.00;;;;;21.82;45.19;102045.56;5036905;28;45484;-69
2023/01/04 01:58:54;;;;;;;;;0.00;0.00;;;;;21.82;45.31;102059.66;5034487;28;46023;-69
2023/01/04 02:01:20;;;;;;;;;0.00;0.00;;;;;21.82;45.88;102061.47;5034654;28;45429;-69
2023/01/04 02:03:46;;;;;;;;;0.00;0.00;;;;;21.84;45.32;102056.84;5034621;28;45280;-69
2023/01/04 02:06:17;;;;;;;;;0.00;0.00;;;;;21.83;45.30;102056.00;5034694;27;45412;-69
2023/01/04 02:08:44;;;;;;;;;0.33;0.33;;;;;21.82;45.30;102051.72;5034235;28;46061;-69
2023/01/04 02:11:09;;;;;;;;;0.00;0.00;;;;;21.82;45.32;102057.00;5034276;28;45295;-69
2023/01/04 02:16:37;;;;;;;;;0.00;0.00;;;;;21.82;45.40;102062.31;5034561;28;45280;-69
2023/01/04 02:19:40;;;;;;;;;0.00;0.00;;;;;21.82;45.30;102057.00;5034175;28;47228;-69
2023/01/04 02:22:30;;;;;;;;;0.00;0.00;;;;;21.76;45.47;102046.16;5034387;28;45514;-69
2023/01/04 02:25:24;;;;;;;;;0.00;0.00;;;;;21.79;45.43;102052.00;5034245;28;45347;-69
2023/01/04 02:27:58;;;;;;;;;0.00;0.00;;;;;21.81;45.30;102054.50;5037737;28;45280;-69
2023/01/04 02:30:41;;;;;;;;;0.00;0.00;;;;;21.80;45.59;102053.69;5037695;28;46390;-69
2023/01/04 02:33:17;;;;;;;;;0.00;0.00;;;;;21.80;45.34;102055.50;5054264;28;45397;-69
2023/01/04 02:36:02;;;;;;;;;0.00;0.00;;;;;21.80;45.80;102052.84;5054472;28;45350;-69
2023/01/04 02:38:39;;;;;;;;;0.00;0.00;;;;;21.79;45.81;102054.66;5053921;28;45217;-69
2023/01/04 02:41:22;;;;;;;;;1.33;0.00;;;;;21.79;45.87;102051.16;5054120;28;46036;-69
2023/01/04 02:50:35;;;;;;;;;0.00;0.00;;;;;21.78;45.42;102060.91;4952678;28;45337;-69
2023/01/04 02:53:00;;;;;;;;;0.67;0.00;;;;;21.77;45.79;102055.78;4952178;28;46191;-69
2023/01/04 02:55:37;;;;;;;;;0.00;0.00;;;;;21.66;45.54;102040.91;4943482;28;45387;-69
2023/01/04 02:58:22;;;;;;;;;0.00;0.00;;;;;21.77;45.03;102055.78;4933915;28;45388;-69
2023/01/04 03:07:05;;;;;;;;;0.00;0.00;;;;;21.76;45.71;102039.03;4933191;28;45477;-69
2023/01/04 03:09:34;;;;;;;;;0.00;0.00;;;;;21.76;45.79;102044.34;4933872;28;45477;-69
2023/01/04 03:14:59;;;;;;;;;0.00;0.00;;;;;21.76;45.40;102033.75;4933360;28;45953;-69
2023/01/04 03:17:26;;;;;;;;;0.00;0.00;;;;;21.78;45.74;102039.72;4933201;28;45413;-70
2023/01/04 03:19:54;;;;;;;;;0.00;0.00;;;;;21.77;45.74;102035.44;4933464;28;45476;-69
2023/01/04 03:37:15;;;;;;;;;0.00;0.00;;;;;21.80;45.21;102021.06;4971395;28;45913;-69
2023/01/04 03:48:40;;;;;;;;;0.00;0.00;;;;;21.79;45.57;102012.25;4971898;28;45319;-69
2023/01/04 03:51:17;;;;;;;;;0.00;0.00;;;;;21.79;45.25;102006.13;4971342;28;45424;-69
2023/01/04 03:54:03;;;;;;;;;0.00;0.00;;;;;21.78;45.29;102012.44;4972005;28;45472;-69
2023/01/04 03:56:31;;;;;;;;;0.00;0.00;;;;;21.74;45.50;101991.53;4993581;28;45415;-69
2023/01/04 03:58:56;;;;;;;;;0.00;0.00;;;;;21.77;45.66;101998.34;5013161;28;46313;-69
2023/01/04 04:01:24;;;;;;;;;0.00;0.00;;;;;21.78;45.20;102010.59;4995223;28;45585;-69
2023/01/04 04:09:18;;;;;;;;;0.00;0.00;;;;;21.78;45.76;101999.19;5013153;28;45748;-69
2023/01/04 04:11:43;;;;;;;;;0.00;0.00;;;;;21.71;45.33;101988.34;5013026;28;45646;-69
2023/01/04 04:14:09;;;;;;;;;0.00;0.00;;;;;21.78;45.60;101996.53;5013235;28;45366;-69
2023/01/04 04:16:34;;;;;;;;;0.00;0.00;;;;;21.77;45.38;102003.63;5013214;28;45329;-69
2023/01/04 04:18:59;;;;;;;;;0.00;0.00;;;;;21.77;45.46;101992.19;5012680;28;46011;-69
2023/01/04 04:21:25;;;;;;;;;1.00;1.00;;;;;21.77;45.28;101994.84;5013072;28;45407;-69
2023/01/04 04:23:50;;;;;;;;;0.00;0.00;;;;;21.74;45.30;101990.69;5013118;28;45558;-69
2023/01/04 04:26:16;;;;;;;;;0.00;0.00;;;;;21.74;45.20;101988.03;5012959;28;45394;-69
2023/01/04 04:28:42;;;;;;;;;0.00;0.00;;;;;21.77;45.35;101995.69;5013192;28;45568;-69
2023/01/04 04:31:08;;;;;;;;;0.00;0.00;;;;;21.73;45.47;101987.19;5031976;28;45661;-69
2023/01/04 04:33:33;;;;;;;;;0.00;0.00;;;;;21.40;45.32;101942.69;5052606;28;45387;-69
2023/01/04 04:35:58;;;;;;;;;0.00;0.00;;;;;21.76;45.32;102004.59;5053018;28;45363;-69
2023/01/04 04:38:24;;;;;;;;;0.00;0.00;;;;;21.75;45.36;101997.66;5052568;28;45325;-69
2023/01/04 04:43:34;;;;;;;;;0.67;0.67;;;;;21.76;45.84;101977.28;5052926;28;45340;-69
2023/01/04 04:45:59;;;;;;;;;0.00;0.00;;;;;21.77;45.42;101965.72;5052737;28;45392;-69
2023/01/04 04:48:25;;;;;;;;;0.00;0.00;;;;;21.76;45.36;101967.53;5052105;28;46032;-69
2023/01/04 04:50:50;;;;;;;;;0.00;0.00;;;;;21.74;45.23;101966.84;5052639;28;45374;-69
2023/01/04 04:53:15;;;;;;;;;0.00;0.00;;;;;21.68;45.28;101955.03;5052719;28;45403;-69
2023/01/04 04:55:41;;;;;;;;;0.00;0.00;;;;;21.77;45.69;101960.41;5040818;28;45328;-69
2023/01/04 04:58:06;;;;;;;;;0.00;0.00;;;;;21.77;45.82;101963.06;5032295;28;46723;-69
2023/01/04 05:00:32;;;;;;;;;0.00;0.00;;;;;21.78;45.79;101957.59;5032296;28;45453;-69
2023/01/04 05:02:58;;;;;;;;;0.00;0.00;;;;;21.68;45.43;101939.13;5031911;28;45409;-69
2023/01/04 05:05:24;;;;;;;;;0.00;0.00;;;;;21.78;45.71;101948.84;5032421;28;45321;-69
2023/01/04 05:07:49;;;;;;;;;0.33;0.00;;;;;21.79;45.72;101953.97;5031956;28;46155;-69
2023/01/04 05:10:14;;;;;;;;;0.00;0.00;;;;;21.79;45.31;101956.63;5032166;28;45346;-69
2023/01/04 05:15:26;;;;;;;;;0.00;0.00;;;;;21.70;45.61;101939.81;5034450;28;45275;-69
2023/01/04 05:17:51;;;;;;;;;0.00;0.00;;;;;21.73;45.69;101941.34;5034654;27;47636;-69
2023/01/04 05:20:17;;;;;;;;;0.00;0.00;;;;;21.81;45.37;101965.25;5035178;28;45422;-69
2023/01/04 05:22:42;;;;;;;;;0.00;0.00;;;;;21.80;45.56;101962.78;5035358;28;45232;-69
2023/01/04 05:25:08;;;;;;;;;0.00;0.00;;;;;21.80;45.36;101957.47;5035196;28;45652;-68
2023/01/04 05:27:34;;;;;;;;;0.00;0.00;;;;;21.78;45.36;101957.59;5023882;28;46946;-69
2023/01/04 05:32:43;;;;;;;;;0.00;0.00;;;;;21.79;45.63;101971.69;5054781;28;45337;-70
2023/01/04 05:35:09;;;;;;;;;0.00;0.00;;;;;21.78;45.53;101970.03;5054944;28;45360;-69
2023/01/04 05:37:34;;;;;;;;;0.00;0.00;;;;;21.78;45.98;101965.56;5030825;28;46259;-69
2023/01/04 05:40:00;;;;;;;;;0.00;0.00;;;;;21.76;45.44;101964.03;5034929;28;45369;-69
2023/01/04 05:42:25;;;;;;;;;0.00;0.00;;;;;21.79;45.49;101976.97;5034791;28;45478;-69
2023/01/04 05:44:55;;;;;;;;;1.00;0.00;;;;;21.77;45.60;101969.19;5035882;27;45268;-69
2023/01/04 05:47:21;;;;;;;;;0.00;0.00;;;;;21.67;46.07;101960.50;5034564;28;46306;-69
2023/01/04 05:49:47;;;;;;;;;0.00;0.00;;;;;21.78;46.06;101970.03;5034715;28;45417;-69
2023/01/04 05:52:12;;;;;;;;;0.00;0.00;;;;;21.78;45.83;101978.00;5034861;28;45439;-70
2023/01/04 05:54:38;;;;;;;;;0.00;0.00;;;;;21.66;46.43;101961.47;5034756;28;45370;-69
2023/01/04 05:57:03;;;;;;;;;0.00;0.00;;;;;21.77;46.63;101985.09;5034828;28;45389;-69
2023/01/04 05:59:28;;;;;;;;;0.00;0.00;;;;;21.77;46.62;101981.59;5034721;28;45440;-70
2023/01/04 06:01:54;;;;;;;;;0.00;0.00;;;;;21.78;46.73;101975.34;5034254;27;45284;-71
2023/01/04 06:04:19;;;;;;;;;0.00;0.00;;;;;21.79;46.49;101969.03;5034702;28;45372;-69
2023/01/04 06:06:45;;;;;;;;;0.00;0.00;;;;;21.80;46.29;101981.31;5034726;28;45345;-69
2023/01/04 06:09:10;;;;;;;;;0.00;0.00;;;;;21.81;46.85;101977.66;5034645;28;45223;-69
2023/01/04 06:11:36;;;;;;;;;0.67;0.67;;;;;21.81;46.86;101969.72;5034579;28;45264;-70
2023/01/04 06:14:01;;;;;;;;;0.00;0.00;;;;;21.82;46.92;101971.38;5034661;28;45979;-70
2023/01/04 06:16:26;;;;;;;;;0.00;0.00;;;;;21.82;47.06;101960.78;5033970;28;45463;-70
2023/01/04 06:18:51;;;;;;;;;0.00;0.00;;;;;21.82;46.92;101969.56;5034677;27;45277;-70
2023/01/04 06:21:17;;;;;;;;;0.00;0.00;;;;;21.83;46.94;101973.06;5034389;28;45416;-70
2023/01/04 06:23:42;;;;;;;;;0.00;0.00;;;;;21.83;46.55;101967.78;5034558;28;45413;-70
2023/01/04 06:26:07;;;;;;;;;0.00;0.00;;;;;21.81;46.95;101969.72;5033197;28;45367;-70
2023/01/04 06:28:33;;;;;;;;;0.00;0.00;;;;;21.83;46.41;101976.53;5034263;28;45351;-70
2023/01/04 06:31:06;;;;;;;;;0.00;0.00;;;;;21.74;46.80;101959.75;5042354;28;45241;-70
2023/01/04 06:33:32;;;;;;;;;0.00;0.00;;;;;21.80;46.51;101976.84;5054489;28;45212;-70
2023/01/04 06:35:58;;;;;;;;;0.00;0.00;;;;;21.86;46.86;101975.38;5054240;28;45342;-70
2023/01/04 06:38:24;;;;;;;;;0.67;0.00;;;;;21.88;46.83;101994.69;5054212;28;45369;-70
2023/01/04 06:40:49;;;;;;;;;0.00;0.00;;;;;21.87;46.38;101990.34;5054214;28;45382;-70
2023/01/04 06:43:15;;;;;;;;;1.00;1.00;;;;;21.88;46.80;101999.97;5054445;28;45389;-70
2023/01/04 06:45:41;;;;;;;;;0.00;0.00;;;;;21.88;46.90;101994.69;5053772;28;47406;-70
2023/01/04 06:48:06;;;;;;;;;0.00;0.00;;;;;21.88;46.59;101992.03;5054395;28;45464;-70
2023/01/04 06:50:32;;;;;;;;;0.00;0.00;;;;;21.80;46.45;101981.31;5054119;28;45462;-70
2023/01/04 06:52:57;;;;;;;;;0.00;0.00;;;;;21.88;46.73;101981.44;5054284;28;45460;-70
2023/01/04 06:55:22;;;;;;;;;0.00;0.00;;;;;21.80;46.59;101974.19;5044965;28;46109;-69
2023/01/04 06:57:48;;;;;;;;;1.00;0.00;;;;;21.87;46.25;101995.66;5033991;28;45458;-69
2023/01/04 07:00:14;;;;;;;;;0.00;0.00;;;;;21.86;46.28;101983.34;5033949;28;45395;-70
2023/01/04 07:02:39;;;;;;;;;0.00;0.00;;;;;21.85;46.16;101982.53;5033832;28;45387;-70
2023/01/04 07:05:05;;;;;;;;;1.00;0.00;;;;;21.81;46.36;101973.19;5033704;28;46308;-70
2023/01/04 07:07:32;;;;;;;;;0.00;0.00;;;;;21.85;46.72;101990.47;5033920;28;45269;-70
2023/01/04 07:09:57;;;;;;;;;0.00;0.00;;;;;21.85;46.26;101984.34;5033971;28;45409;-70
2023/01/04 07:12:23;;;;;;;;;0.00;0.00;;;;;21.85;46.14;101982.53;5033698;28;45349;-70
2023/01/04 07:14:48;;;;;;;;;0.00;0.00;;;;;21.86;46.62;101988.63;5033337;28;46304;-70
2023/01/04 07:17:13;;;;;;;;;0.00;0.00;;;;;21.81;46.21;101977.66;5033704;28;45318;-70
2023/01/04 07:19:39;;;;;;;;;0.00;0.00;;;;;21.82;46.35;101985.47;5033736;28;45409;-70
2023/01/04 07:22:04;;;;;;;;;0.00;0.00;;;;;21.84;46.55;101980.00;5033746;28;45401;-70
2023/01/04 07:24:29;;;;;;;;;0.00;0.00;;;;;21.84;46.23;101985.31;5033398;28;49658;-70
2023/01/04 07:26:55;;;;;;;;;0.00;0.00;;;;;21.79;46.20;101976.97;5033433;28;45310;-70
2023/01/04 07:29:21;;;;;;;;;2.00;1.00;;;;;21.80;46.17;101970.72;5033394;28;45320;-70
2023/01/04 07:31:48;;;;;;;;;0.00;0.00;;;;;21.84;46.61;101975.56;5048386;28;45371;-70
2023/01/04 07:34:16;;;;;;;;;1.00;0.00;;;;;21.84;46.57;101977.38;5053543;28;46269;-70
2023/01/04 07:36:41;;;;;;;;;0.67;0.00;;;;;21.82;46.44;101974.88;5053124;28;45243;-69
2023/01/04 07:39:11;;;;;;;;;0.00;0.00;;;;;21.81;46.08;101970.56;5053466;28;45254;-70
2023/01/04 07:41:38;;;;;;;;;0.00;0.00;;;;;21.82;46.66;101985.47;5053618;28;45384;-70
2023/01/04 07:44:04;;;;;;;;;0.00;0.00;;;;;21.82;46.11;101985.47;5053284;28;45335;-70
2023/01/04 07:46:30;;;;;;;;;0.00;0.00;;;;;21.76;46.50;101969.34;5053402;28;45380;-70
2023/01/04 07:48:56;;;;;;;;;0.33;0.33;;;;;21.82;46.26;101968.75;5053566;28;45271;-70
2023/01/04 07:51:21;;;;;;;;;2.67;0.00;;;;;21.82;46.20;101972.22;5053445;28;45424;-70
2023/01/04 07:53:46;;;;;;;;;0.00;0.00;;;;;21.80;46.10;101976.00;5053288;28;46918;-70
2023/01/04 07:56:12;;;;;;;;;0.00;0.00;;;;;21.81;46.16;101983.78;5037274;28;45929;-70
2023/01/04 07:58:38;;;;;;;;;0.67;0.67;;;;;21.82;46.40;101985.47;5032929;28;45547;-70
2023/01/04 08:01:16;;;;;;;;;0.00;0.00;;;;;21.82;46.24;101982.00;5033378;28;45535;-71
2023/01/04 08:03:43;;;;;;;;;0.33;0.33;;;;;21.83;46.51;101986.31;5032826;27;45368;-72
2023/01/04 08:06:11;;;;;;;;;0.00;0.00;;;;;21.83;46.65;101983.66;5033106;28;45371;-70
2023/01/04 08:08:36;;;;;;;;;0.00;0.00;;;;;21.83;46.64;101981.81;5033067;28;45367;-72
2023/01/04 08:11:13;;;;;;;;;1.00;0.33;;;;;21.84;46.65;101974.72;5014746;27;45470;-69
2023/01/04 08:13:39;;;;;;;;;0.00;0.00;;;;;21.79;46.44;101966.38;5021790;28;47173;-71
2023/01/04 08:16:05;;;;;;;;;2.00;0.00;;;;;21.85;46.09;101979.03;5031738;28;45390;-71
2023/01/04 08:18:31;;;;;;;;;1.00;0.00;;;;;21.84;46.80;101975.56;5031927;28;45430;-71
2023/01/04 08:21:07;;;;;;;;;0.00;0.00;;;;;21.85;46.13;101979.03;5032684;28;45539;-71
2023/01/04 08:23:35;;;;;;;;;0.33;0.00;;;;;21.85;46.40;101979.03;5030485;28;46285;-71
2023/01/04 08:26:07;;;;;;;;;1.00;0.00;;;;;21.86;46.32;101986.00;5032293;28;45386;-71
2023/01/04 08:28:33;;;;;;;;;2.00;0.00;;;;;21.86;46.37;101996.59;5032244;28;45477;-71
2023/01/04 08:31:03;;;;;;;;;1.00;1.00;;;;;21.85;46.88;101989.63;5032503;28;45563;-71
2023/01/04 08:33:28;;;;;;;;;1.00;1.00;;;;;21.85;46.93;101987.81;5032330;28;46130;-71
2023/01/04 08:35:54;;;;;;;;;0.00;0.00;;;;;21.80;46.42;101982.16;5032277;28;45363;-70
2023/01/04 08:38:19;;;;;;;;;1.33;0.00;;;;;21.85;46.51;101998.44;5032259;28;45316;-71
2023/01/04 08:40:44;;;;;;;;;0.00;0.00;;;;;21.85;46.96;101995.78;5032486;27;45594;-71
2023/01/04 08:43:10;;;;;;;;;0.00;0.00;;;;;21.82;46.58;101996.06;5032312;28;45948;-71
2023/01/04 08:45:35;;;;;;;;;0.00;0.00;;;;;21.85;46.86;101997.59;5032596;27;45298;-71
2023/01/04 08:48:00;;;;;;;;;0.00;0.00;;;;;21.84;47.01;101993.25;5032180;28;45329;-71
2023/01/04 08:50:26;;;;;;;;;0.33;0.33;;;;;21.84;46.58;101994.09;5034397;28;45576;-71
2023/01/04 08:52:51;;;;;;;;;1.00;0.00;;;;;21.84;46.62;101998.56;5035084;28;47102;-71
2023/01/04 08:55:16;;;;;;;;;0.00;0.00;;;;;21.82;46.95;101997.88;5034788;27;45416;-71
2023/01/04 08:57:42;;;;;;;;;0.33;0.00;;;;;21.84;46.79;102003.84;5035293;28;45304;-70
2023/01/04 09:00:08;;;;;;;;;0.00;0.00;;;;;21.84;47.01;101996.75;5030024;28;45427;-69
2023/01/04 09:02:33;;;;;;;;;1.00;1.00;;;;;21.75;47.08;101971.19;5023893;28;46073;-69
2023/01/04 09:05:01;;;;;;;;;0.00;0.00;;;;;21.82;46.70;101996.06;5015343;28;45361;-71
2023/01/04 09:07:31;;;;;;;;;0.00;0.00;;;;;21.85;46.93;101994.94;5015680;27;45316;-71
2023/01/04 09:09:56;;;;;;;;;0.00;0.00;;;;;21.84;47.17;101987.97;5013630;28;45406;-71
2023/01/04 09:12:22;;;;;;;;;0.00;0.00;;;;;21.83;47.23;101995.06;5032142;28;46423;-70
2023/01/04 09:14:48;;;;;;;;;1.00;0.00;;;;;21.82;47.13;101989.94;5035247;28;45409;-69
2023/01/04 09:17:14;;;;;;;;;0.00;0.00;;;;;21.84;47.10;101991.44;5035443;28;45398;-69
2023/01/04 09:19:39;;;;;;;;;0.00;0.00;;;;;21.84;47.10;101991.44;5035338;27;45439;-69
2023/01/04 09:22:05;;;;;;;;;0.00;0.00;;;;;21.76;47.22;101983.41;5035146;28;45411;-69
2023/01/04 09:24:32;;;;;;;;;0.00;0.00;;;;;21.85;47.23;101997.59;5034852;28;45269;-69
2023/01/04 09:26:57;;;;;;;;;0.00;0.00;;;;;21.85;46.84;101998.44;5035185;28;45407;-69
2023/01/04 09:29:24;;;;;;;;;3.00;0.00;;;;;21.85;46.89;101997.59;5035302;27;45526;-69
2023/01/04 09:31:50;;;;;;;;;0.00;0.00;;;;;21.85;47.23;101993.13;5034871;27;46175;-69
2023/01/04 09:34:15;;;;;;;;;0.00;0.00;;;;;21.86;47.16;101991.28;5034961;28;45265;-69
2023/01/04 09:36:41;;;;;;;;;0.00;0.00;;;;;21.86;46.88;101999.22;5035145;28;45287;-69
2023/01/04 09:39:06;;;;;;;;;0.00;0.00;;;;;21.87;46.93;102006.25;5034726;27;45484;-69
2023/01/04 09:41:36;;;;;;;;;1.00;1.00;;;;;21.87;46.78;102013.31;5034409;28;46199;-70
2023/01/04 09:44:04;;;;;;;;;0.00;0.00;;;;;21.87;46.69;102000.06;5035159;28;45322;-69
2023/01/04 09:46:38;;;;;;;;;1.00;1.00;;;;;21.78;46.75;101986.75;5034097;28;45478;-69
2023/01/04 09:49:22;;;;;;;;;1.00;1.00;;;;;21.88;46.67;102001.78;5034927;28;45390;-69
2023/01/04 09:51:56;;;;;;;;;0.00;0.00;;;;;21.88;47.14;102012.38;5034602;28;46214;-69
2023/01/04 09:54:27;;;;;;;;;0.00;0.00;;;;;21.80;47.20;102005.16;5034348;28;45481;-69
2023/01/04 09:56:57;;;;;;;;;1.00;0.67;;;;;21.87;46.55;102010.66;5034873;28;45413;-70
2023/01/04 09:59:29;;;;;;;;;0.00;0.00;;;;;21.86;47.24;102017.78;5034703;28;45572;-68
2023/01/04 10:02:00;;;;;;;;;0.00;0.00;;;;;21.89;46.71;102024.63;5034241;28;46315;-69
2023/01/04 10:04:39;;;;;;;;;1.00;0.00;;;;;21.89;47.20;102027.28;5034491;28;45403;-69
2023/01/04 10:07:17;;;;;;;;;0.00;0.00;;;;;21.88;46.78;102025.63;5034299;28;45415;-69
2023/01/04 10:09:42;;;;;;;;;0.00;0.00;;;;;21.88;47.14;102025.63;5034818;28;45505;-70
2023/01/04 10:12:21;;;;;;;;;0.00;0.00;;;;;21.87;46.94;102032.75;5034445;28;46193;-70
2023/01/04 10:15:04;;;;;;;;;0.00;0.00;;;;;21.87;46.76;102038.03;5034615;28;45378;-70
2023/01/04 10:17:36;;;;;;;;;0.00;0.00;;;;;21.87;47.14;102031.88;5034685;28;45369;-70
2023/01/04 10:20:15;;;;;;;;;0.00;0.00;;;;;21.89;47.09;102040.53;5034487;28;45261;-70
2023/01/04 10:22:48;;;;;;;;;0.33;0.33;;;;;21.83;46.79;102031.34;5016135;28;47237;-69
2023/01/04 10:25:13;;;;;;;;;0.00;0.00;;;;;21.88;47.08;102034.41;5034279;28;45466;-70
2023/01/04 10:28:08;;;;;;;;;0.67;0.00;;;;;21.88;47.12;102031.78;5034462;28;45344;-70
2023/01/04 10:30:58;;;;;;;;;0.33;0.00;;;;;21.87;46.54;102023.91;5039144;28;45359;-69
2023/01/04 10:33:38;;;;;;;;;0.00;0.00;;;;;21.87;46.85;102031.88;5054309;28;46058;-70
2023/01/04 10:36:34;;;;;;;;;0.00;0.00;;;;;21.80;46.57;102015.75;5053922;27;45460;-69
2023/01/04 10:39:04;;;;;;;;;0.00;0.00;;;;;21.88;47.21;102030.94;5053689;28;45365;-69
2023/01/04 10:41:39;;;;;;;;;0.00;0.00;;;;;21.87;46.80;102035.38;5054179;27;45392;-69
2023/01/04 10:44:49;;;;;;;;;0.00;0.00;;;;;21.85;46.59;102027.56;5054237;28;47461;-70
2023/01/04 10:47:20;;;;;;;;;0.00;0.00;;;;;21.85;47.14;102024.91;5049306;28;45486;-69
2023/01/04 10:49:52;;;;;;;;;0.00;0.00;;;;;21.85;47.23;102024.09;5036422;27;45320;-70
2023/01/04 10:52:46;;;;;;;;;0.00;0.00;;;;;21.82;47.10;102016.44;5053779;28;45259;-70
2023/01/04 10:55:18;;;;;;;;;0.00;0.00;;;;;21.84;46.94;102011.81;5036912;28;46178;-70
2023/01/04 10:57:50;;;;;;;;;0.00;0.00;;;;;21.85;47.18;102021.44;5033856;28;45424;-69
2023/01/04 11:00:28;;;;;;;;;0.00;0.00;;;;;21.85;46.79;102018.78;5034087;28;45378;-70
2023/01/04 11:03:06;;;;;;;;;0.00;0.00;;;;;21.85;46.73;102013.47;5015985;28;45406;-69
2023/01/04 11:05:31;;;;;;;;;0.00;0.00;;;;;21.84;47.24;102007.34;5033392;28;46183;-69
2023/01/04 11:07:56;;;;;;;;;0.67;0.00;;;;;21.84;46.81;102004.69;5033827;28;45336;-70
2023/01/04 11:10:30;;;;;;;;;0.00;0.00;;;;;21.85;46.75;102003.72;5033933;28;45315;-69
2023/01/04 11:12:56;;;;;;;;;0.00;0.00;;;;;21.73;47.11;101975.75;5033272;28;45424;-69
2023/01/04 11:15:21;;;;;;;;;0.00;0.00;;;;;21.84;46.72;101998.56;5033680;28;45920;-70
2023/01/04 11:17:47;;;;;;;;;0.00;0.00;;;;;21.85;46.66;102009.03;5033728;28;45484;-69
2023/01/04 11:20:13;;;;;;;;;0.67;0.00;;;;;21.87;46.76;102006.25;5033475;28;45269;-70
2023/01/04 11:22:51;;;;;;;;;0.00;0.00;;;;;21.87;47.16;102000.94;5033822;28;45357;-70
2023/01/04 11:25:19;;;;;;;;;0.00;0.00;;;;;21.88;46.79;102007.09;5033662;28;46134;-70
2023/01/04 11:27:50;;;;;;;;;0.33;0.33;;;;;21.80;47.08;101984.81;5033533;28;45351;-70
2023/01/04 11:30:22;;;;;;;;;0.00;0.00;;;;;21.88;46.52;101996.47;5035891;28;45395;-70
2023/01/04 11:33:04;;;;;;;;;0.00;0.00;;;;;21.89;46.77;102000.78;5053872;28;45229;-70
2023/01/04 11:35:45;;;;;;;;;0.00;0.00;;;;;21.88;46.55;101997.31;5053285;28;46148;-69
2023/01/04 11:38:13;;;;;;;;;0.00;0.00;;;;;21.88;47.01;102002.63;5053566;28;45378;-70
2023/01/04 11:40:40;;;;;;;;;0.00;0.00;;;;;21.88;46.69;101994.69;5053464;28;45392;-70
2023/01/04 11:43:17;;;;;;;;;0.00;0.00;;;;;21.88;46.62;101996.47;5053566;28;45288;-69
2023/01/04 11:46:17;;;;;;;;;0.00;0.00;;;;;21.88;47.19;101999.97;5053329;28;47041;-70
2023/01/04 11:48:46;;;;;;;;;1.67;0.00;;;;;21.88;47.05;101997.31;5053062;28;45338;-70
2023/01/04 11:51:25;;;;;;;;;0.00;0.00;;;;;21.87;46.85;101990.34;5053584;28;45456;-69
2023/01/04 11:54:21;;;;;;;;;0.00;0.00;;;;;21.87;47.06;101978.88;5053461;28;45226;-70
2023/01/04 11:57:11;;;;;;;;;0.00;0.00;;;;;21.89;47.00;101984.88;5012608;28;47358;-70
2023/01/04 11:59:36;;;;;;;;;0.00;0.00;;;;;21.86;46.92;101978.03;5013279;28;45333;-69
2023/01/04 12:02:21;;;;;;;;;0.00;0.00;;;;;21.88;46.65;101975.28;5013256;28;45280;-69
2023/01/04 12:04:48;;;;;;;;;0.00;0.00;;;;;21.86;47.00;101972.75;5013137;28;45361;-69
2023/01/04 12:07:22;;;;;;;;;1.00;0.00;;;;;21.85;46.64;101979.03;5013249;28;45315;-70
2023/01/04 12:09:48;;;;;;;;;0.00;0.00;;;;;21.84;46.68;101977.38;5013157;28;45440;-70
2023/01/04 12:12:13;;;;;;;;;0.00;0.00;;;;;21.85;46.88;101977.22;5013245;28;45411;-70
2023/01/04 12:14:46;;;;;;;;;0.00;0.00;;;;;21.84;46.86;101980.00;5013296;28;45405;-69
2023/01/04 12:17:26;;;;;;;;;0.00;0.00;;;;;21.76;46.70;101958.75;5012880;28;47427;-70
2023/01/04 12:19:55;;;;;;;;;0.00;0.00;;;;;21.84;46.65;101972.06;5012929;28;45378;-70
2023/01/04 12:22:37;;;;;;;;;0.00;0.00;;;;;21.84;46.99;101982.66;5013116;28;45372;-70
2023/01/04 12:25:06;;;;;;;;;1.00;0.00;;;;;21.84;47.08;101970.25;5011742;28;45369;-70
2023/01/04 12:27:32;;;;;;;;;0.33;0.00;;;;;21.85;46.60;101969.28;5012847;28;46195;-69
2023/01/04 12:30:06;;;;;;;;;0.00;0.00;;;;;21.86;47.14;101972.75;5012747;28;45312;-69